La Grange, New York
Current Conditions -  °F | °C
As of 7:53 PM on Friday 21 Nov 2014 (Local Time) from KPOU Reporting Station
Clear Clear  
Wind Chill: 20°   Ceiling: Unl
Heat Index: 29°   Visibility: 10mi
Dew Point: 11°   Wind: 9mph
Humidity: 47%   Direction: 280°W
Pressure: 30.46"   Gusts: NA
Location:  41.6724°N, 73.7208°W
Report Text: KPOU 220053Z 28008KT 10SM CLR M02/M12 A3046 RMK AO2 SLP314 T10171117
Loading
Personal Weather Stations






























Interactive Weather Map New forecast layout! Learn more

10-Day Weather Forecast

Advertisements
Track Severe Weather on mobile